Saranac Lake, NY

3:18 PM EDT on October 01, 2016 (GMT -0400)
North Country Community College | | Change Station

Elev 1600 ft 44.32 °N, 74.12 °W | Updated 6 seconds ago

Overcast
Overcast
62.7 °F
Feels Like 62.7 °F
N
1.2
Wind Variable Wind from SW
Gusts 2.0 mph

Today
High -- | Low -- °F
--% Chance of Precip.
Yesterday
High -- | Low -- °F
Precip. -- in
Pressure 30.22 in
Visibility 10.0 miles
Clouds Overcast 2000 ft
Dew Point 54 °F
Humidity 75%
Rainfall 0.00 in
Snow Depth Not available.
6:54 AM 6:36 PM
New Moon, 1% visible
METAR KSLK 011851Z AUTO 08006KT 10SM OVC020 16/11 A3022 RMK AO2 SLP233 T01610106 $
Pressure 30.22 in
Visibility 10.0 miles
Clouds Overcast 2000 ft
Dew Point 54 °F
Humidity 75%
Rainfall 0.00 in
Snow Depth Not available.
6:54 AM 6:36 PM
New Moon, 1% visible
METAR KSLK 011851Z AUTO 08006KT 10SM OVC020 16/11 A3022 RMK AO2 SLP233 T01610106 $

10-Day Weather Forecast

Almanac

Astronomy

Oct. 01, 2016 Rise Set
Actual Time
Civil Twilight
Nautical Twilight
Astronomical Twilight
Moon
Length of Visible Light
Length of Day
Tomorrow will be .
, % of the Moon is Illuminated

Today's Extremes

State Highs State Lows

Community

WunderPhotos

Upload Photos

1,942,999 photos uploaded!

WunderBlog® & News

Nearby

Air Quality

  Air Quality AQ Index Pollutant
Not available.

Snow Depth

Station Depth Elevation

Earthquake Activity

City Distance Mag. Time & Date
Minimum magnitude displayed is 2.5.

Coastal Water Temperatures

Place Temperature

Stations

Nearby Weather Stations

Station Location Temp. Windchill Dew Point Humidity Wind Precip. Elev Updated Type
                   

Watches & Warnings

There are currently no watches in effect.